Time;durP1;ratioP1;P1;durP2;ratioP2;P2;SDS_P1;SDS_P2;PMS_P1;PMS_P2;Temp;Humidity;BMP_temperature;BMP_pressure;BME280_temperature;BME280_humidity;BME280_pressure;Samples;Min_cycle;Max_cycle;Signal;HPM_P1;HPM_P2
2023/07/26 00:01:31;;;;;;;0.10;0.10;;;;;;;13.03;100.00;101004.72;5052920;28;20443;-47
2023/07/26 00:03:58;;;;;;;0.10;0.10;;;;;;;13.03;100.00;101007.31;5052269;28;20020;-50
2023/07/26 00:06:29;;;;;;;0.20;0.20;;;;;;;13.01;100.00;101007.28;5052833;28;20036;-48
2023/07/26 00:08:54;;;;;;;0.10;0.10;;;;;;;13.03;100.00;101007.31;5052938;28;20028;-48
2023/07/26 00:11:20;;;;;;;0.10;0.10;;;;;;;13.02;100.00;101009.00;5052297;28;20040;-48
2023/07/26 00:13:45;;;;;;;0.10;0.10;;;;;;;13.02;100.00;101013.31;5052785;28;20029;-48
2023/07/26 00:16:11;;;;;;;0.10;0.10;;;;;;;13.04;100.00;101008.16;5052968;28;20545;-50
2023/07/26 00:18:38;;;;;;;0.20;0.20;;;;;;;13.04;100.00;101010.75;5051680;28;20043;-49
2023/07/26 00:21:04;;;;;;;0.20;0.20;;;;;;;13.00;100.00;101005.53;5052830;28;20029;-48
2023/07/26 00:23:30;;;;;;;0.10;0.10;;;;;;;12.96;100.00;101005.41;5052529;28;20108;-47
2023/07/26 00:25:55;;;;;;;0.20;0.20;;;;;;;12.94;100.00;101004.50;5052177;28;20028;-49
2023/07/26 00:28:21;;;;;;;0.13;0.13;;;;;;;12.84;100.00;101006.88;5052042;28;20017;-48
2023/07/26 00:30:47;;;;;;;0.17;0.17;;;;;;;12.75;100.00;101006.66;5052512;28;20025;-50
2023/07/26 00:33:13;;;;;;;0.10;0.10;;;;;;;12.70;100.00;101000.50;5051961;28;20083;-48
2023/07/26 00:35:40;;;;;;;0.20;0.20;;;;;;;12.64;100.00;101002.94;5052295;28;20271;-45
2023/07/26 00:38:06;;;;;;;0.10;0.10;;;;;;;12.59;100.00;101000.28;5052549;28;20033;-47
2023/07/26 00:40:32;;;;;;;0.10;0.10;;;;;;;12.52;100.00;100998.38;5052067;28;20036;-50
2023/07/26 00:42:57;;;;;;;0.10;0.10;;;;;;;12.45;100.00;100993.91;5052521;28;20052;-49
2023/07/26 00:45:23;;;;;;;0.10;0.10;;;;;;;12.46;100.00;101005.97;5051602;28;20025;-47
2023/07/26 00:47:48;;;;;;;0.20;0.20;;;;;;;12.37;100.00;101006.63;5053048;28;20029;-49
2023/07/26 00:50:14;;;;;;;0.10;0.10;;;;;;;12.31;100.00;101001.31;5053003;28;20032;-50
2023/07/26 00:52:39;;;;;;;0.10;0.10;;;;;;;12.28;100.00;101003.84;5051308;28;20039;-49
2023/07/26 00:55:06;;;;;;;0.10;0.10;;;;;;;12.30;100.00;100999.56;5052707;28;20461;-50
2023/07/26 00:57:32;;;;;;;0.10;0.10;;;;;;;12.33;100.00;100991.88;5052151;28;20116;-47
2023/07/26 00:59:58;;;;;;;0.10;0.10;;;;;;;12.37;100.00;100998.88;5051773;28;20487;-50
2023/07/26 01:02:24;;;;;;;0.10;0.10;;;;;;;12.38;100.00;100997.16;5052164;28;20025;-49
2023/07/26 01:04:50;;;;;;;0.10;0.10;;;;;;;12.37;100.00;101001.47;5052401;28;20024;-49
2023/07/26 01:07:24;;;;;;;0.10;0.10;;;;;;;12.38;100.00;100998.03;5051451;28;20057;-49
2023/07/26 01:09:56;;;;;;;0.10;0.10;;;;;;;12.35;100.00;100998.81;5052341;28;20465;-49
2023/07/26 01:12:28;;;;;;;0.20;0.20;;;;;;;12.29;100.00;101000.38;5052316;28;20033;-49
2023/07/26 01:14:58;;;;;;;0.10;0.10;;;;;;;12.22;100.00;101003.66;5051649;28;20017;-47
2023/07/26 01:17:24;;;;;;;0.10;0.10;;;;;;;12.18;100.00;101003.56;5052045;28;20373;-46
2023/07/26 01:19:49;;;;;;;0.10;0.10;;;;;;;12.17;100.00;101003.53;5052193;28;20538;-50
2023/07/26 01:22:14;;;;;;;0.10;0.10;;;;;;;12.16;100.00;100996.63;5051575;28;20036;-50
2023/07/26 01:24:40;;;;;;;0.13;0.13;;;;;;;12.22;100.00;100991.59;5051818;28;20025;-48
2023/07/26 01:27:05;;;;;;;0.20;0.20;;;;;;;12.26;100.00;100997.75;5052127;28;20051;-50
2023/07/26 01:29:30;;;;;;;0.10;0.10;;;;;;;12.28;100.00;101003.84;5051252;28;20035;-47
2023/07/26 01:31:56;;;;;;;0.20;0.20;;;;;;;12.31;100.00;100998.72;5052102;28;20025;-48
2023/07/26 01:34:22;;;;;;;0.10;0.10;;;;;;;12.33;100.00;101002.19;5052206;28;20083;-49
2023/07/26 01:36:51;;;;;;;0.10;0.10;;;;;;;12.38;100.00;101002.31;5051808;28;20052;-49
2023/07/26 01:39:17;;;;;;;0.10;0.10;;;;;;;12.39;100.00;100998.91;5053056;28;20591;-50
2023/07/26 01:41:43;;;;;;;0.20;0.20;;;;;;;12.41;100.00;100998.13;5054535;28;20033;-50
2023/07/26 01:44:08;;;;;;;0.10;0.10;;;;;;;12.39;100.00;100997.19;5055550;28;20457;-48
2023/07/26 01:46:34;;;;;;;0.10;0.10;;;;;;;12.39;100.00;100998.91;5055388;28;20032;-46
2023/07/26 01:48:59;;;;;;;0.20;0.20;;;;;;;12.39;100.00;100997.19;5054743;28;20108;-49
2023/07/26 01:51:25;;;;;;;0.15;0.15;;;;;;;12.39;100.00;100999.78;5055375;28;20163;-48
2023/07/26 01:53:50;;;;;;;0.20;0.20;;;;;;;12.42;100.00;100998.97;5055595;28;20063;-48
2023/07/26 01:56:15;;;;;;;0.20;0.20;;;;;;;12.41;100.00;101003.28;5054772;28;20033;-48
2023/07/26 01:58:41;;;;;;;0.10;0.10;;;;;;;12.41;100.00;100999.81;5054998;28;20468;-48
2023/07/26 02:01:06;;;;;;;0.10;0.10;;;;;;;12.37;100.00;100998.88;5055234;28;20472;-47
2023/07/26 02:03:31;;;;;;;0.10;0.10;;;;;;;12.37;100.00;101000.56;5054242;28;20021;-50
2023/07/26 02:05:57;;;;;;;0.10;0.10;;;;;;;12.38;100.00;100998.03;5055406;28;20436;-49
2023/07/26 02:08:22;;;;;;;0.10;0.10;;;;;;;12.36;100.00;100999.72;5055225;28;20025;-45
2023/07/26 02:10:47;;;;;;;0.20;0.20;;;;;;;12.39;100.00;100999.78;5054458;28;20021;-49
2023/07/26 02:13:13;;;;;;;0.10;0.10;;;;;;;12.40;100.00;101001.53;5054994;28;20075;-48
2023/07/26 02:15:39;;;;;;;0.10;0.10;;;;;;;12.40;100.00;101001.53;5054728;28;20025;-49
2023/07/26 02:18:05;;;;;;;0.20;0.20;;;;;;;12.42;100.00;100998.97;5054168;28;20025;-47
2023/07/26 02:20:30;;;;;;;0.20;0.20;;;;;;;12.39;100.00;100998.91;5054632;28;20479;-50
2023/07/26 02:22:56;;;;;;;0.15;0.15;;;;;;;12.34;100.00;100997.09;5055049;28;20025;-49
2023/07/26 02:25:21;;;;;;;0.10;0.10;;;;;;;12.30;100.00;100989.22;5054017;28;20472;-48
2023/07/26 02:27:47;;;;;;;0.20;0.20;;;;;;;12.24;100.00;100986.47;5054721;28;20048;-49
2023/07/26 02:30:12;;;;;;;0.10;0.10;;;;;;;12.19;100.00;100988.97;5054897;28;20100;-49
2023/07/26 02:32:37;;;;;;;0.13;0.13;;;;;;;12.19;100.00;100991.53;5053387;28;20032;-48
2023/07/26 02:35:03;;;;;;;0.10;0.10;;;;;;;12.18;100.00;100989.78;5054989;28;20025;-48
2023/07/26 02:37:28;;;;;;;0.13;0.13;;;;;;;12.15;100.00;100985.41;5054604;28;20051;-49
2023/07/26 02:39:54;;;;;;;0.17;0.17;;;;;;;12.13;100.00;100988.78;5054007;28;20036;-47
2023/07/26 02:42:19;;;;;;;0.10;0.10;;;;;;;12.05;100.00;100988.59;5054367;28;20482;-48
2023/07/26 02:44:46;;;;;;;0.20;0.20;;;;;;;12.01;100.00;100992.81;5053660;28;20024;-49
2023/07/26 02:47:11;;;;;;;0.10;0.10;;;;;;;12.00;100.00;100987.59;5054301;28;20388;-49
2023/07/26 02:49:36;;;;;;;0.13;0.13;;;;;;;12.00;100.00;100985.88;5054077;28;20028;-48
2023/07/26 02:52:02;;;;;;;0.20;0.20;;;;;;;12.01;100.00;100985.06;5052673;28;20500;-48
2023/07/26 02:54:27;;;;;;;0.10;0.10;;;;;;;12.00;100.00;100990.19;5054225;28;20111;-48
2023/07/26 02:56:53;;;;;;;0.13;0.13;;;;;;;12.01;100.00;100987.63;5054419;28;20027;-48
2023/07/26 02:59:18;;;;;;;0.10;0.10;;;;;;;12.02;100.00;100994.56;5053443;28;20074;-49
2023/07/26 03:01:44;;;;;;;0.20;0.20;;;;;;;12.02;100.00;100991.13;5053872;28;20025;-49
2023/07/26 03:04:10;;;;;;;0.10;0.10;;;;;;;12.02;100.00;100998.88;5054302;28;20017;-50
2023/07/26 03:06:35;;;;;;;0.10;0.10;;;;;;;11.99;100.00;101009.09;5053112;28;20074;-49
2023/07/26 03:09:01;;;;;;;0.10;0.10;;;;;;;11.99;100.00;101006.53;5054208;28;20029;-49
2023/07/26 03:11:26;;;;;;;0.10;0.10;;;;;;;11.96;100.00;101009.91;5053663;28;20546;-49
2023/07/26 03:13:51;;;;;;;0.10;0.10;;;;;;;11.93;100.00;101020.13;5053160;28;20017;-45
2023/07/26 03:16:17;;;;;;;0.20;0.20;;;;;;;11.92;100.00;101022.69;5053828;28;20029;-48
2023/07/26 03:18:43;;;;;;;0.20;0.20;;;;;;;11.88;100.00;101011.38;5053451;28;20032;-48
2023/07/26 03:21:08;;;;;;;0.20;0.20;;;;;;;11.80;100.00;100998.25;5053158;28;20056;-48
2023/07/26 03:23:34;;;;;;;0.13;0.13;;;;;;;11.74;100.00;101000.66;5053528;28;20032;-50
2023/07/26 03:26:00;;;;;;;0.10;0.10;;;;;;;11.73;100.00;101004.06;5053788;28;20096;-48
2023/07/26 03:28:27;;;;;;;0.10;0.10;;;;;;;11.67;100.00;100999.63;5052553;28;20094;-48
2023/07/26 03:30:52;;;;;;;0.20;0.20;;;;;;;11.60;100.00;101007.16;5053408;28;20507;-48
2023/07/26 03:33:17;;;;;;;0.20;0.20;;;;;;;11.48;100.00;101008.56;5053490;28;20021;-49
2023/07/26 03:35:43;;;;;;;0.10;0.10;;;;;;;11.42;100.00;101000.63;5052515;28;20020;-49
2023/07/26 03:38:08;;;;;;;0.20;0.20;;;;;;;11.31;100.00;101008.09;5053572;28;20025;-48
2023/07/26 03:40:33;;;;;;;0.20;0.20;;;;;;;11.24;100.00;101007.84;5053255;28;20063;-47
2023/07/26 03:42:59;;;;;;;0.10;0.10;;;;;;;11.18;100.00;101009.44;5052316;28;20408;-48
2023/07/26 03:45:26;;;;;;;0.10;0.10;;;;;;;11.14;100.00;101015.34;5052935;28;20386;-47
2023/07/26 03:47:52;;;;;;;;;;;;;;;11.22;100.00;101012.97;5053755;28;20028;-47
2023/07/26 03:50:17;;;;;;;0.10;0.10;;;;;;;11.06;100.00;101010.75;5052374;28;19909;-49
2023/07/26 03:52:42;;;;;;;0.10;0.10;;;;;;;10.97;100.00;101007.06;5052700;28;20036;-49
2023/07/26 03:55:08;;;;;;;0.20;0.20;;;;;;;10.91;100.00;101009.47;5052399;28;20029;-46
2023/07/26 03:57:33;;;;;;;0.20;0.20;;;;;;;10.90;100.00;101011.97;5052726;28;20029;-45
2023/07/26 03:59:59;;;;;;;0.10;0.10;;;;;;;10.89;100.00;101007.69;5053046;28;20484;-49
2023/07/26 04:02:24;;;;;;;0.20;0.20;;;;;;;10.82;100.00;101011.75;5051590;28;20385;-45
2023/07/26 04:04:49;;;;;;;0.20;0.20;;;;;;;10.75;100.00;101005.53;5053096;28;20057;-49
2023/07/26 04:07:15;;;;;;;0.15;0.15;;;;;;;10.74;100.00;101001.19;5053093;28;20392;-45
2023/07/26 04:09:40;;;;;;;0.10;0.10;;;;;;;10.67;100.00;101007.00;5051850;28;20025;-44
2023/07/26 04:12:06;;;;;;;0.20;0.20;;;;;;;10.65;100.00;101003.47;5052776;28;20469;-44
2023/07/26 04:14:31;;;;;;;0.20;0.20;;;;;;;10.62;100.00;100998.25;5052669;28;20112;-45
2023/07/26 04:16:56;;;;;;;0.10;0.10;;;;;;;10.60;100.00;101005.94;5052068;28;20025;-50
2023/07/26 04:19:21;;;;;;;0.13;0.13;;;;;;;10.62;100.00;101003.41;5052976;28;20017;-44
2023/07/26 04:21:47;;;;;;;0.20;0.20;;;;;;;10.64;100.00;101007.78;5052815;28;20377;-47
2023/07/26 04:24:12;;;;;;;0.20;0.20;;;;;;;10.64;100.00;101006.88;5052024;28;20070;-49
2023/07/26 04:26:37;;;;;;;0.10;0.10;;;;;;;10.64;100.00;101001.72;5052371;28;20021;-48
2023/07/26 04:29:03;;;;;;;0.10;0.10;;;;;;;10.62;100.00;101000.81;5052559;28;20024;-48
2023/07/26 04:31:28;;;;;;;0.20;0.20;;;;;;;10.63;100.00;101000.88;5051364;28;20499;-47
2023/07/26 04:33:54;;;;;;;0.20;0.20;;;;;;;10.64;100.00;101005.19;5052545;28;20036;-48
2023/07/26 04:36:19;;;;;;;0.20;0.20;;;;;;;10.65;100.00;101000.91;5052540;28;20056;-48
2023/07/26 04:38:45;;;;;;;0.20;0.20;;;;;;;10.68;100.00;101008.75;5051527;28;20036;-44
2023/07/26 04:41:10;;;;;;;0.10;0.10;;;;;;;10.73;100.00;101006.31;5052611;28;20051;-46
2023/07/26 04:43:36;;;;;;;0.20;0.20;;;;;;;10.76;100.00;101009.84;5052052;28;20411;-49
2023/07/26 04:46:01;;;;;;;0.20;0.20;;;;;;;10.76;100.00;101012.44;5051678;28;20053;-44
2023/07/26 04:48:26;;;;;;;0.20;0.20;;;;;;;10.79;100.00;101009.94;5052402;28;20142;-48
2023/07/26 04:50:52;;;;;;;0.17;0.17;;;;;;;10.79;100.00;101012.53;5052492;28;20162;-45
2023/07/26 04:53:17;;;;;;;0.20;0.20;;;;;;;10.84;100.00;101017.84;5051698;28;20461;-47
2023/07/26 04:55:48;;;;;;;0.20;0.20;;;;;;;10.82;100.00;101015.22;5052125;28;20116;-49
2023/07/26 04:58:14;;;;;;;0.20;0.20;;;;;;;10.85;100.00;101024.75;5052318;28;20419;-50
2023/07/26 05:00:40;;;;;;;0.20;0.20;;;;;;;10.88;100.00;101011.94;5051289;28;20461;-47
2023/07/26 05:03:06;;;;;;;0.10;0.10;;;;;;;10.87;100.00;101005.91;5052305;28;20083;-43
2023/07/26 05:05:35;;;;;;;0.20;0.20;;;;;;;10.86;100.00;101013.63;5051285;28;20033;-48
2023/07/26 05:08:01;;;;;;;0.20;0.20;;;;;;;10.90;100.00;101009.41;5052413;28;20029;-49
2023/07/26 05:10:26;;;;;;;0.10;0.10;;;;;;;10.95;100.00;101003.56;5051920;28;20381;-48
2023/07/26 05:12:52;;;;;;;0.20;0.20;;;;;;;11.04;100.00;101008.16;5051321;28;20032;-47
2023/07/26 05:15:18;;;;;;;0.20;0.20;;;;;;;11.07;100.00;101008.22;5054789;28;20055;-49
2023/07/26 05:17:44;;;;;;;0.20;0.20;;;;;;;11.14;100.00;101005.00;5055959;28;20020;-50
2023/07/26 05:20:10;;;;;;;0.20;0.20;;;;;;;11.20;100.00;101015.50;5055386;28;20025;-46
2023/07/26 05:22:35;;;;;;;0.13;0.13;;;;;;;11.26;100.00;101014.81;5055624;28;20063;-48
2023/07/26 05:25:01;;;;;;;0.20;0.20;;;;;;;11.36;100.00;101015.94;5055994;28;20129;-44
2023/07/26 05:27:26;;;;;;;0.10;0.10;;;;;;;11.41;100.00;101003.19;5054872;28;20384;-45
2023/07/26 05:29:53;;;;;;;0.30;0.20;;;;;;;11.48;100.00;101011.16;5055839;28;20704;-46
2023/07/26 05:32:18;;;;;;;0.20;0.20;;;;;;;11.61;100.00;101011.50;5055958;28;20029;-49
2023/07/26 05:34:44;;;;;;;0.20;0.20;;;;;;;11.61;100.00;101008.91;5054907;28;20029;-49
2023/07/26 05:37:09;;;;;;;0.20;0.20;;;;;;;11.73;100.00;101008.38;5055924;28;20362;-50
2023/07/26 05:39:34;;;;;;;0.20;0.20;;;;;;;11.81;100.00;101010.34;5055254;28;20029;-45
2023/07/26 05:42:00;;;;;;;0.20;0.20;;;;;;;11.96;100.00;101009.03;5054637;28;20059;-50
2023/07/26 05:44:25;;;;;;;0.20;0.20;;;;;;;12.12;100.00;101013.78;5055189;28;20086;-44
2023/07/26 05:46:50;;;;;;;0.20;0.20;;;;;;;12.30;100.00;101007.31;5055491;28;20384;-46
2023/07/26 05:49:15;;;;;;;0.20;0.20;;;;;;;12.45;100.00;101015.44;5054817;28;20461;-48
2023/07/26 05:51:41;;;;;;;0.10;0.10;;;;;;;12.63;100.00;101008.97;5054975;28;20113;-49
2023/07/26 05:54:06;;;;;;;0.10;0.10;;;;;;;12.71;100.00;101011.75;5055550;28;20052;-49
2023/07/26 05:56:31;;;;;;;0.10;0.10;;;;;;;12.85;100.00;101015.53;5054385;28;20028;-50
2023/07/26 05:58:57;;;;;;;0.10;0.10;;;;;;;12.94;100.00;101017.44;5055267;28;20025;-45
2023/07/26 06:01:22;;;;;;;0.20;0.20;;;;;;;13.04;100.00;101016.81;5055119;28;20040;-45
2023/07/26 06:03:47;;;;;;;0.10;0.10;;;;;;;13.12;100.00;101022.16;5054416;28;20031;-50
2023/07/26 06:06:13;;;;;;;0.10;0.10;;;;;;;13.23;100.00;101028.41;5055315;28;20033;-49
2023/07/26 06:08:38;;;;;;;0.20;0.20;;;;;;;13.31;100.00;101026.00;5054802;28;20156;-45
2023/07/26 06:11:03;;;;;;;0.20;0.20;;;;;;;13.47;100.00;101033.28;5054166;28;20017;-50
2023/07/26 06:13:29;;;;;;;0.10;0.10;;;;;;;13.45;100.00;101037.56;5054643;28;20029;-44
2023/07/26 06:15:55;;;;;;;0.20;0.20;;;;;;;13.44;100.00;101041.00;5054148;28;20415;-49
2023/07/26 06:18:20;;;;;;;0.20;0.20;;;;;;;13.48;100.00;101042.81;5055102;28;20029;-47
2023/07/26 06:20:46;;;;;;;0.10;0.10;;;;;;;13.54;100.00;101054.13;5054575;28;20040;-49
2023/07/26 06:23:11;;;;;;;0.10;0.10;;;;;;;13.60;100.00;101046.50;5054222;28;20037;-45
2023/07/26 06:25:36;;;;;;;0.10;0.10;;;;;;;13.69;100.00;101053.59;5054601;28;20171;-47
2023/07/26 06:28:02;;;;;;;0.17;0.17;;;;;;;13.69;100.00;101057.03;5054829;28;20106;-47
2023/07/26 06:30:27;;;;;;;0.20;0.20;;;;;;;13.70;100.00;101061.38;5053490;28;20025;-49
2023/07/26 06:32:53;;;;;;;0.10;0.10;;;;;;;13.67;100.00;101066.47;5054516;28;20025;-45
2023/07/26 06:35:19;;;;;;;0.17;0.17;;;;;;;13.63;100.00;101073.34;5054647;28;20457;-49
2023/07/26 06:37:44;;;;;;;0.17;0.17;;;;;;;13.57;100.00;101077.47;5053472;28;20021;-48
2023/07/26 06:40:10;;;;;;;0.10;0.10;;;;;;;13.48;100.00;101080.78;5054762;28;20100;-49
2023/07/26 06:42:36;;;;;;;0.10;0.10;;;;;;;13.40;100.00;101078.03;5054150;28;20045;-48
2023/07/26 06:45:01;;;;;;;0.10;0.10;;;;;;;13.31;100.00;101077.75;5053534;28;20033;-46
2023/07/26 06:47:26;;;;;;;0.10;0.10;;;;;;;13.30;100.00;101082.09;5054330;28;20023;-44
2023/07/26 06:49:52;;;;;;;0.10;0.10;;;;;;;13.27;100.00;101083.72;5054404;28;20100;-45
2023/07/26 06:52:17;;;;;;;0.10;0.10;;;;;;;13.28;100.00;101088.06;5053482;28;20075;-45
2023/07/26 06:54:43;;;;;;;0.10;0.10;;;;;;;13.29;100.00;101085.50;5054067;28;20025;-50
2023/07/26 06:57:09;;;;;;;0.10;0.10;;;;;;;13.33;100.00;101086.44;5054429;28;20025;-49
2023/07/26 06:59:35;;;;;;;0.10;0.10;;;;;;;13.32;100.00;101093.34;5053105;28;20637;-48
2023/07/26 07:02:00;;;;;;;0.20;0.20;;;;;;;13.36;100.00;101091.69;5054238;28;20120;-47
2023/07/26 07:04:26;;;;;;;0.10;0.10;;;;;;;13.36;100.00;101086.50;5053789;28;20342;-44
2023/07/26 07:06:51;;;;;;;0.10;0.10;;;;;;;13.37;100.00;101093.47;5053518;28;20103;-44
2023/07/26 07:09:17;;;;;;;0.20;0.20;;;;;;;13.37;100.00;101093.47;5053932;28;20013;-48
2023/07/26 07:11:42;;;;;;;0.10;0.10;;;;;;;13.38;100.00;101100.41;5053514;28;20036;-50
2023/07/26 07:14:08;;;;;;;0.10;0.10;;;;;;;13.34;100.00;101114.09;5053295;28;20025;-49
2023/07/26 07:16:33;;;;;;;0.10;0.10;;;;;;;13.28;100.00;101117.41;5053492;28;20025;-44
2023/07/26 07:18:58;;;;;;;0.10;0.10;;;;;;;13.25;100.00;101134.59;5053919;28;20021;-48
2023/07/26 07:21:24;;;;;;;0.10;0.10;;;;;;;13.21;100.00;101135.34;5052799;28;20117;-50
2023/07/26 07:23:50;;;;;;;0.20;0.20;;;;;;;13.12;100.00;101113.59;5053724;28;20421;-47
2023/07/26 07:26:17;;;;;;;0.10;0.10;;;;;;;13.01;100.00;101125.41;5052937;28;20032;-45
2023/07/26 07:28:42;;;;;;;0.20;0.20;;;;;;;12.90;100.00;101119.09;5053405;28;20108;-49
2023/07/26 07:31:07;;;;;;;0.13;0.13;;;;;;;12.85;100.00;101122.44;5053459;28;20111;-49
2023/07/26 07:33:33;;;;;;;0.10;0.10;;;;;;;12.86;100.00;101125.91;5052564;28;20036;-48
2023/07/26 07:35:58;;;;;;;0.10;0.10;;;;;;;12.88;100.00;101124.22;5053590;28;20376;-50
2023/07/26 07:38:24;;;;;;;0.20;0.20;;;;;;;12.94;100.00;101128.69;5052600;28;20361;-50
2023/07/26 07:40:49;;;;;;;0.10;0.10;;;;;;;12.98;100.00;101127.91;5052581;28;20021;-49
2023/07/26 07:43:14;;;;;;;0.20;0.20;;;;;;;13.00;100.00;101131.41;5053084;28;20465;-50
2023/07/26 07:45:43;;;;;;;0.20;0.20;;;;;;;12.94;100.00;101129.56;5053275;28;20385;-50
2023/07/26 07:48:09;;;;;;;0.10;0.10;;;;;;;12.99;100.00;101127.94;5052563;28;20035;-45
2023/07/26 07:50:35;;;;;;;0.15;0.15;;;;;;;13.08;100.00;101126.41;5052932;28;20017;-50
2023/07/26 07:53:01;;;;;;;0.10;0.10;;;;;;;13.20;100.00;101125.84;5053209;28;20075;-49
2023/07/26 07:55:26;;;;;;;0.10;0.10;;;;;;;13.29;100.00;101116.56;5051875;28;20025;-47
2023/07/26 07:57:51;;;;;;;0.13;0.13;;;;;;;13.58;100.00;101118.97;5053064;28;20029;-44
2023/07/26 08:00:17;;;;;;;0.10;0.10;;;;;;;13.64;100.00;101118.22;5053203;28;20028;-47
2023/07/26 08:02:43;;;;;;;0.20;0.20;;;;;;;13.67;100.00;101107.91;5052060;28;20033;-48
2023/07/26 08:05:09;;;;;;;0.20;0.20;;;;;;;13.77;100.00;101115.03;5052986;28;20079;-49
2023/07/26 08:07:34;;;;;;;0.10;0.10;;;;;;;13.83;100.00;101120.34;5052608;28;20117;-44
2023/07/26 08:09:59;;;;;;;0.10;0.10;;;;;;;14.11;100.00;101115.72;5052032;28;20111;-50
2023/07/26 08:12:25;;;;;;;0.13;0.13;;;;;;;14.22;100.00;101108.16;5052407;28;20025;-49
2023/07/26 08:14:50;;;;;;;0.20;0.20;;;;;;;14.41;100.00;101114.56;5052997;28;20028;-49
2023/07/26 08:17:16;;;;;;;0.13;0.13;;;;;;;14.54;100.00;101119.94;5052162;28;20492;-48
2023/07/26 08:19:41;;;;;;;0.10;0.10;;;;;;;14.59;100.00;101118.31;5052721;28;20966;-50
2023/07/26 08:22:06;;;;;;;0.10;0.10;;;;;;;14.73;100.00;101119.47;5052735;28;20024;-44
2023/07/26 08:24:32;;;;;;;0.10;0.10;;;;;;;14.85;100.00;101121.38;5051741;28;20032;-49
2023/07/26 08:26:57;;;;;;;0.10;0.10;;;;;;;15.07;100.00;101126.94;5052578;28;20021;-50
2023/07/26 08:29:22;;;;;;;0.10;0.10;;;;;;;15.21;100.00;101128.00;5051740;28;20021;-46
2023/07/26 08:31:48;;;;;;;0.10;0.10;;;;;;;15.27;100.00;101122.00;5052786;28;20025;-46
2023/07/26 08:34:13;;;;;;;0.10;0.10;;;;;;;15.47;100.00;101115.38;5052714;28;20017;-50
2023/07/26 08:36:38;;;;;;;0.20;0.20;;;;;;;15.55;100.00;101120.69;5051573;28;20025;-44
2023/07/26 08:39:04;;;;;;;0.17;0.17;;;;;;;15.69;100.00;101113.06;5052460;28;20036;-48
2023/07/26 08:41:30;;;;;;;0.10;0.10;;;;;;;15.78;100.00;101120.13;5052138;28;20116;-50
2023/07/26 08:43:59;;;;;;;0.13;0.13;;;;;;;15.96;100.00;101119.50;5051703;28;20053;-49
2023/07/26 08:46:26;;;;;;;0.10;0.10;;;;;;;15.95;100.00;101120.34;5052386;28;20021;-49
2023/07/26 08:48:52;;;;;;;;;;;;;;;16.18;100.00;101128.41;5053599;28;20025;-49
2023/07/26 08:51:20;;;;;;;0.10;0.10;;;;;;;16.23;100.00;101120.63;5055774;28;19994;-49
2023/07/26 08:53:45;;;;;;;0.10;0.10;;;;;;;16.35;100.00;101112.97;5056207;28;20477;-50
2023/07/26 08:56:12;;;;;;;0.10;0.10;;;;;;;16.48;100.00;101123.53;5056318;28;20037;-49
2023/07/26 08:58:37;;;;;;;0.10;0.10;;;;;;;16.62;100.00;101119.31;5055555;28;20017;-50
2023/07/26 09:01:03;;;;;;;0.10;0.10;;;;;;;16.63;100.00;101115.84;5056352;28;20021;-51
2023/07/26 09:03:28;;;;;;;0.10;0.10;;;;;;;16.75;100.00;101105.53;5056051;28;20495;-48
2023/07/26 09:06:05;;;;;;;0.10;0.10;;;;;;;16.97;100.00;101110.09;5055568;28;20103;-50
2023/07/26 09:08:30;;;;;;;0.00;0.00;;;;;;;17.23;100.00;101102.44;5056015;28;20079;-49
2023/07/26 09:10:56;;;;;;;0.10;0.10;;;;;;;17.34;100.00;101099.88;5056419;28;20021;-48
2023/07/26 09:13:22;;;;;;;0.10;0.10;;;;;;;17.59;100.00;101106.09;5055555;28;20067;-47
2023/07/26 09:15:47;;;;;;;0.10;0.10;;;;;;;17.73;100.00;101099.22;5056291;28;20086;-49
2023/07/26 09:18:14;;;;;;;0.00;0.00;;;;;;;17.82;100.00;101097.50;5056241;28;20021;-50
2023/07/26 09:20:40;;;;;;;0.00;0.00;;;;;;;18.26;100.00;101099.41;5055071;28;20092;-48
2023/07/26 09:23:05;;;;;;;0.00;0.00;;;;;;;18.62;99.82;101097.72;5056035;28;20108;-50
2023/07/26 09:25:32;;;;;;;0.00;0.00;;;;;;;18.57;86.29;101099.44;5055886;28;20056;-49
2023/07/26 09:28:01;;;;;;;0.10;0.10;;;;;;;18.22;91.24;101100.28;5055263;28;20025;-50
2023/07/26 09:30:27;;;;;;;0.10;0.10;;;;;;;17.81;93.48;101101.84;5055580;28;20053;-49
2023/07/26 09:32:55;;;;;;;0.00;0.00;;;;;;;17.64;95.56;101106.13;5054808;28;20120;-50
2023/07/26 09:35:21;;;;;;;0.10;0.10;;;;;;;18.01;96.72;101101.06;5055878;28;20060;-48
2023/07/26 09:37:46;;;;;;;0.05;0.05;;;;;;;18.08;93.48;101095.03;5055580;28;20021;-45
2023/07/26 09:40:12;;;;;;;0.10;0.10;;;;;;;18.05;93.49;101090.66;5055263;28;20029;-46
2023/07/26 09:42:43;;;;;;;0.10;0.10;;;;;;;17.90;94.74;101098.41;5054781;28;20045;-46
2023/07/26 09:45:13;;;;;;;0.10;0.10;;;;;;;17.62;98.25;101100.91;5054504;28;20381;-49
2023/07/26 09:47:39;;;;;;;0.00;0.00;;;;;;;17.48;100.00;101093.03;5053454;28;20096;-48
2023/07/26 09:50:04;;;;;;;0.00;0.00;;;;;;;17.22;99.10;101101.59;5054396;28;20114;-48
2023/07/26 09:52:30;;;;;;;0.00;0.00;;;;;;;16.86;100.00;101108.25;5053791;28;20043;-47
2023/07/26 09:54:57;;;;;;;0.10;0.10;;;;;;;16.69;100.00;101109.81;5053485;28;20021;-45
2023/07/26 09:57:23;;;;;;;0.10;0.10;;;;;;;16.46;97.44;101103.56;5053939;28;20496;-48
2023/07/26 09:59:49;;;;;;;0.10;0.10;;;;;;;16.23;96.69;101110.25;5053951;28;20017;-45
2023/07/26 10:02:16;;;;;;;0.10;0.10;;;;;;;16.13;100.00;101111.88;5053320;28;20031;-49
2023/07/26 10:04:54;;;;;;;0.00;0.00;;;;;;;16.12;100.00;101113.59;5053774;28;20443;-45
2023/07/26 10:07:22;;;;;;;0.10;0.10;;;;;;;16.50;98.56;101108.78;5054143;28;20531;-48
2023/07/26 10:09:48;;;;;;;0.10;0.10;;;;;;;17.16;92.24;101105.84;5053546;28;20025;-48
2023/07/26 10:12:15;;;;;;;0.10;0.10;;;;;;;17.73;88.53;101099.22;5054044;28;20036;-45
2023/07/26 10:14:42;;;;;;;0.10;0.10;;;;;;;18.08;82.49;101090.66;5053723;28;20025;-47
2023/07/26 10:17:09;;;;;;;0.10;0.10;;;;;;;18.56;82.57;101102.91;5053274;28;20036;-47
2023/07/26 10:19:38;;;;;;;0.10;0.10;;;;;;;18.26;80.85;101109.84;5053791;28;20104;-46
2023/07/26 10:22:04;;;;;;;0.10;0.10;;;;;;;17.83;83.80;101105.34;5053164;28;20036;-49
2023/07/26 10:24:31;;;;;;;0.03;0.03;;;;;;;17.48;84.82;101113.88;5053700;28;20032;-48
2023/07/26 10:26:57;;;;;;;0.10;0.10;;;;;;;17.15;89.79;101104.13;5054169;28;20024;-45
2023/07/26 10:29:22;;;;;;;0.00;0.00;;;;;;;16.69;87.59;101110.69;5052702;28;20488;-44
2023/07/26 10:32:03;;;;;;;0.05;0.05;;;;;;;16.60;95.33;101110.59;5053569;28;20067;-49
2023/07/26 10:34:28;;;;;;;0.10;0.10;;;;;;;16.60;94.91;101100.19;5053269;28;20035;-45
2023/07/26 10:36:54;;;;;;;0.10;0.10;;;;;;;17.78;96.92;101097.50;5052648;28;20108;-44
2023/07/26 10:39:29;;;;;;;0.10;0.10;;;;;;;18.54;81.71;101088.97;5053575;28;20021;-44
2023/07/26 10:41:54;;;;;;;0.00;0.00;;;;;;;19.63;82.96;101085.34;5017353;28;1039848;-48
2023/07/26 10:44:20;;;;;;;0.00;0.00;;;;;;;20.26;75.75;101085.91;5053637;28;20167;-50
2023/07/26 10:46:48;;;;;;;0.00;0.00;;;;;;;20.47;75.40;101090.13;5054355;28;20024;-47
2023/07/26 10:49:28;;;;;;;0.00;0.00;;;;;;;21.57;67.06;101092.59;5054588;28;20025;-43
2023/07/26 10:51:58;;;;;;;0.00;0.00;;;;;;;21.61;60.85;101088.19;5053506;28;20086;-44
2023/07/26 10:54:33;;;;;;;0.00;0.00;;;;;;;22.06;68.11;101098.09;5054039;28;20021;-45
2023/07/26 10:57:20;;;;;;;0.00;0.00;;;;;;;22.38;66.27;101094.16;5054234;28;20389;-45
2023/07/26 11:00:00;;;;;;;0.00;0.00;;;;;;;22.34;57.54;101091.53;5053985;28;20380;-50
2023/07/26 11:02:46;;;;;;;0.00;0.00;;;;;;;23.18;59.85;101095.44;5053948;28;20025;-48
2023/07/26 11:05:30;;;;;;;0.00;0.00;;;;;;;23.78;60.83;101102.13;5053404;28;20028;-45
2023/07/26 11:08:06;;;;;;;0.00;0.00;;;;;;;24.51;54.67;101103.13;5054162;28;20443;-47
2023/07/26 11:10:36;;;;;;;0.00;0.00;;;;;;;24.43;51.08;101094.56;5053568;28;20021;-45
2023/07/26 11:13:12;;;;;;;0.00;0.00;;;;;;;24.83;50.75;101104.13;5052341;28;20461;-44
2023/07/26 11:15:45;;;;;;;0.00;0.00;;;;;;;24.93;50.10;101104.72;5053729;28;20032;-45